sensor_id;sensor_type;location;lat;lon;timestamp;temperature;humidity
21950;DHT22;11139;51.284;7.226;2022-10-16T00:00:53;14.30;99.90
21950;DHT22;11139;51.284;7.226;2022-10-16T00:03:18;14.30;99.90
21950;DHT22;11139;51.284;7.226;2022-10-16T00:05:44;14.30;99.90
21950;DHT22;11139;51.284;7.226;2022-10-16T00:08:12;14.30;99.90
21950;DHT22;11139;51.284;7.226;2022-10-16T00:10:39;14.30;99.90
21950;DHT22;11139;51.284;7.226;2022-10-16T00:13:05;14.30;99.90
21950;DHT22;11139;51.284;7.226;2022-10-16T00:15:32;14.30;99.90
21950;DHT22;11139;51.284;7.226;2022-10-16T00:17:58;14.30;99.90
21950;DHT22;11139;51.284;7.226;2022-10-16T00:20:24;14.20;99.90
21950;DHT22;11139;51.284;7.226;2022-10-16T00:22:49;14.30;99.90
21950;DHT22;11139;51.284;7.226;2022-10-16T00:25:15;14.20;99.90
21950;DHT22;11139;51.284;7.226;2022-10-16T00:27:40;14.30;99.90
21950;DHT22;11139;51.284;7.226;2022-10-16T00:30:06;14.30;99.90
21950;DHT22;11139;51.284;7.226;2022-10-16T00:32:33;14.30;99.90
21950;DHT22;11139;51.284;7.226;2022-10-16T00:34:58;14.20;99.90
21950;DHT22;11139;51.284;7.226;2022-10-16T00:37:24;14.20;99.90
21950;DHT22;11139;51.284;7.226;2022-10-16T00:39:49;14.20;99.90
21950;DHT22;11139;51.284;7.226;2022-10-16T00:42:16;14.20;99.90
21950;DHT22;11139;51.284;7.226;2022-10-16T00:47:19;14.20;99.90
21950;DHT22;11139;51.284;7.226;2022-10-16T00:49:46;14.20;99.90
21950;DHT22;11139;51.284;7.226;2022-10-16T00:52:13;14.20;99.90
21950;DHT22;11139;51.284;7.226;2022-10-16T00:54:38;14.20;99.90
21950;DHT22;11139;51.284;7.226;2022-10-16T00:57:04;14.20;99.90
21950;DHT22;11139;51.284;7.226;2022-10-16T00:59:35;14.20;99.90
21950;DHT22;11139;51.284;7.226;2022-10-16T01:02:05;14.20;99.90
21950;DHT22;11139;51.284;7.226;2022-10-16T01:04:35;14.20;99.90
21950;DHT22;11139;51.284;7.226;2022-10-16T01:12:19;14.20;99.90
21950;DHT22;11139;51.284;7.226;2022-10-16T01:14:56;14.20;99.90
21950;DHT22;11139;51.284;7.226;2022-10-16T01:17:28;14.20;99.90
21950;DHT22;11139;51.284;7.226;2022-10-16T01:22:30;14.20;99.90
21950;DHT22;11139;51.284;7.226;2022-10-16T01:24:57;14.20;99.90
21950;DHT22;11139;51.284;7.226;2022-10-16T01:27:26;14.10;99.90
21950;DHT22;11139;51.284;7.226;2022-10-16T01:29:53;14.20;99.90
21950;DHT22;11139;51.284;7.226;2022-10-16T01:40:18;14.20;99.90
21950;DHT22;11139;51.284;7.226;2022-10-16T01:42:46;14.20;99.90
21950;DHT22;11139;51.284;7.226;2022-10-16T01:45:14;14.10;99.90
21950;DHT22;11139;51.284;7.226;2022-10-16T01:47:43;14.10;99.90
21950;DHT22;11139;51.284;7.226;2022-10-16T01:50:09;14.10;99.90
21950;DHT22;11139;51.284;7.226;2022-10-16T01:52:35;14.10;99.90
21950;DHT22;11139;51.284;7.226;2022-10-16T01:55:03;14.20;99.90
21950;DHT22;11139;51.284;7.226;2022-10-16T01:57:29;14.10;99.90
21950;DHT22;11139;51.284;7.226;2022-10-16T01:59:56;14.10;99.90
21950;DHT22;11139;51.284;7.226;2022-10-16T02:02:27;14.20;99.90
21950;DHT22;11139;51.284;7.226;2022-10-16T02:05:08;14.20;99.90
21950;DHT22;11139;51.284;7.226;2022-10-16T02:07:35;14.10;99.90
21950;DHT22;11139;51.284;7.226;2022-10-16T02:10:01;14.10;99.90
21950;DHT22;11139;51.284;7.226;2022-10-16T02:12:28;14.10;99.90
21950;DHT22;11139;51.284;7.226;2022-10-16T02:14:55;14.10;99.90
21950;DHT22;11139;51.284;7.226;2022-10-16T02:17:21;14.10;99.90
21950;DHT22;11139;51.284;7.226;2022-10-16T02:19:47;14.10;99.90
21950;DHT22;11139;51.284;7.226;2022-10-16T02:22:47;14.10;99.90
21950;DHT22;11139;51.284;7.226;2022-10-16T02:25:19;14.10;99.90
21950;DHT22;11139;51.284;7.226;2022-10-16T02:27:54;14.10;99.90
21950;DHT22;11139;51.284;7.226;2022-10-16T02:30:33;14.10;99.90
21950;DHT22;11139;51.284;7.226;2022-10-16T02:33:00;14.10;99.90
21950;DHT22;11139;51.284;7.226;2022-10-16T02:35:27;14.10;99.90
21950;DHT22;11139;51.284;7.226;2022-10-16T02:37:53;14.10;99.90
21950;DHT22;11139;51.284;7.226;2022-10-16T02:40:19;14.10;99.90
21950;DHT22;11139;51.284;7.226;2022-10-16T02:42:49;14.10;99.90
21950;DHT22;11139;51.284;7.226;2022-10-16T02:45:14;14.10;99.90
21950;DHT22;11139;51.284;7.226;2022-10-16T02:47:40;14.10;99.90
21950;DHT22;11139;51.284;7.226;2022-10-16T02:50:05;14.10;99.90
21950;DHT22;11139;51.284;7.226;2022-10-16T02:52:31;14.10;99.90
21950;DHT22;11139;51.284;7.226;2022-10-16T02:54:56;14.10;99.90
21950;DHT22;11139;51.284;7.226;2022-10-16T02:57:22;14.00;99.90
21950;DHT22;11139;51.284;7.226;2022-10-16T02:59:48;14.10;99.90
21950;DHT22;11139;51.284;7.226;2022-10-16T03:02:13;14.00;99.90
21950;DHT22;11139;51.284;7.226;2022-10-16T03:04:39;14.10;99.90
21950;DHT22;11139;51.284;7.226;2022-10-16T03:07:04;14.00;99.90
21950;DHT22;11139;51.284;7.226;2022-10-16T03:09:30;14.00;99.90
21950;DHT22;11139;51.284;7.226;2022-10-16T03:11:55;14.00;99.90
21950;DHT22;11139;51.284;7.226;2022-10-16T03:14:21;14.00;99.90
21950;DHT22;11139;51.284;7.226;2022-10-16T03:16:46;14.00;99.90
21950;DHT22;11139;51.284;7.226;2022-10-16T03:19:12;14.00;99.90
21950;DHT22;11139;51.284;7.226;2022-10-16T03:21:38;14.00;99.90
21950;DHT22;11139;51.284;7.226;2022-10-16T03:24:03;14.00;99.90
21950;DHT22;11139;51.284;7.226;2022-10-16T03:26:29;14.00;99.90
21950;DHT22;11139;51.284;7.226;2022-10-16T03:29:00;14.00;99.90
21950;DHT22;11139;51.284;7.226;2022-10-16T03:31:27;14.00;99.90
21950;DHT22;11139;51.284;7.226;2022-10-16T03:33:53;14.00;99.90
21950;DHT22;11139;51.284;7.226;2022-10-16T03:36:18;14.00;99.90
21950;DHT22;11139;51.284;7.226;2022-10-16T03:38:44;14.00;99.90
21950;DHT22;11139;51.284;7.226;2022-10-16T03:41:09;14.00;99.90
21950;DHT22;11139;51.284;7.226;2022-10-16T03:43:35;14.00;99.90
21950;DHT22;11139;51.284;7.226;2022-10-16T03:46:01;13.90;99.90
21950;DHT22;11139;51.284;7.226;2022-10-16T03:48:26;14.00;99.90
21950;DHT22;11139;51.284;7.226;2022-10-16T03:50:51;14.00;99.90
21950;DHT22;11139;51.284;7.226;2022-10-16T03:53:17;13.90;99.90
21950;DHT22;11139;51.284;7.226;2022-10-16T03:55:43;14.00;99.90
21950;DHT22;11139;51.284;7.226;2022-10-16T03:58:09;14.00;99.90
21950;DHT22;11139;51.284;7.226;2022-10-16T04:00:34;14.00;99.90
21950;DHT22;11139;51.284;7.226;2022-10-16T04:03:00;13.90;99.90
21950;DHT22;11139;51.284;7.226;2022-10-16T04:05:26;13.90;99.90
21950;DHT22;11139;51.284;7.226;2022-10-16T04:07:54;13.90;99.90
21950;DHT22;11139;51.284;7.226;2022-10-16T04:10:20;14.00;99.90
21950;DHT22;11139;51.284;7.226;2022-10-16T04:12:45;14.00;99.90
21950;DHT22;11139;51.284;7.226;2022-10-16T04:15:11;13.90;99.90
21950;DHT22;11139;51.284;7.226;2022-10-16T04:17:36;14.00;99.90
21950;DHT22;11139;51.284;7.226;2022-10-16T04:20:02;13.90;99.90
21950;DHT22;11139;51.284;7.226;2022-10-16T04:22:28;13.90;99.90
21950;DHT22;11139;51.284;7.226;2022-10-16T04:24:53;13.90;99.90
21950;DHT22;11139;51.284;7.226;2022-10-16T04:27:19;13.90;99.90
21950;DHT22;11139;51.284;7.226;2022-10-16T04:29:44;13.90;99.90
21950;DHT22;11139;51.284;7.226;2022-10-16T04:32:10;13.90;99.90
21950;DHT22;11139;51.284;7.226;2022-10-16T04:34:39;13.90;99.90
21950;DHT22;11139;51.284;7.226;2022-10-16T04:37:07;13.90;99.90
21950;DHT22;11139;51.284;7.226;2022-10-16T04:39:32;13.90;99.90
21950;DHT22;11139;51.284;7.226;2022-10-16T04:41:58;13.90;99.90
21950;DHT22;11139;51.284;7.226;2022-10-16T04:44:23;13.90;99.90
21950;DHT22;11139;51.284;7.226;2022-10-16T04:46:52;13.90;99.90
21950;DHT22;11139;51.284;7.226;2022-10-16T04:49:18;13.90;99.90
21950;DHT22;11139;51.284;7.226;2022-10-16T04:51:43;13.90;99.90
21950;DHT22;11139;51.284;7.226;2022-10-16T04:54:09;13.90;99.90
21950;DHT22;11139;51.284;7.226;2022-10-16T04:56:35;13.90;99.90
21950;DHT22;11139;51.284;7.226;2022-10-16T04:59:08;13.80;99.90
21950;DHT22;11139;51.284;7.226;2022-10-16T05:01:33;13.90;99.90
21950;DHT22;11139;51.284;7.226;2022-10-16T05:03:59;13.80;99.90
21950;DHT22;11139;51.284;7.226;2022-10-16T05:06:24;13.90;99.90
21950;DHT22;11139;51.284;7.226;2022-10-16T05:08:50;13.90;99.90
21950;DHT22;11139;51.284;7.226;2022-10-16T05:11:16;13.80;99.90
21950;DHT22;11139;51.284;7.226;2022-10-16T05:13:41;13.90;99.90
21950;DHT22;11139;51.284;7.226;2022-10-16T05:16:07;13.90;99.90
21950;DHT22;11139;51.284;7.226;2022-10-16T05:18:32;13.80;99.90
21950;DHT22;11139;51.284;7.226;2022-10-16T05:20:58;13.80;99.90
21950;DHT22;11139;51.284;7.226;2022-10-16T05:23:23;13.90;99.90
21950;DHT22;11139;51.284;7.226;2022-10-16T05:25:52;13.80;99.90
21950;DHT22;11139;51.284;7.226;2022-10-16T05:28:18;13.80;99.90
21950;DHT22;11139;51.284;7.226;2022-10-16T05:30:44;13.80;99.90
21950;DHT22;11139;51.284;7.226;2022-10-16T05:33:10;13.80;99.90
21950;DHT22;11139;51.284;7.226;2022-10-16T05:35:35;13.80;99.90
21950;DHT22;11139;51.284;7.226;2022-10-16T05:38:00;13.90;99.90
21950;DHT22;11139;51.284;7.226;2022-10-16T05:40:26;13.80;99.90
21950;DHT22;11139;51.284;7.226;2022-10-16T05:42:54;13.80;99.90
21950;DHT22;11139;51.284;7.226;2022-10-16T05:45:19;13.80;99.90
21950;DHT22;11139;51.284;7.226;2022-10-16T05:47:45;13.80;99.90
21950;DHT22;11139;51.284;7.226;2022-10-16T05:50:10;13.80;99.90
21950;DHT22;11139;51.284;7.226;2022-10-16T05:52:36;13.80;99.90
21950;DHT22;11139;51.284;7.226;2022-10-16T05:55:02;13.80;99.90
21950;DHT22;11139;51.284;7.226;2022-10-16T05:57:27;13.80;99.90
21950;DHT22;11139;51.284;7.226;2022-10-16T05:59:53;13.80;99.90
21950;DHT22;11139;51.284;7.226;2022-10-16T06:02:18;13.80;99.90
21950;DHT22;11139;51.284;7.226;2022-10-16T06:04:44;13.80;99.90
21950;DHT22;11139;51.284;7.226;2022-10-16T06:07:09;13.80;99.90
21950;DHT22;11139;51.284;7.226;2022-10-16T06:09:35;13.80;99.90
21950;DHT22;11139;51.284;7.226;2022-10-16T06:12:00;13.80;99.90
21950;DHT22;11139;51.284;7.226;2022-10-16T06:14:26;13.80;99.90
21950;DHT22;11139;51.284;7.226;2022-10-16T06:16:51;13.80;99.90
21950;DHT22;11139;51.284;7.226;2022-10-16T06:19:17;13.80;99.90
21950;DHT22;11139;51.284;7.226;2022-10-16T06:21:43;13.80;99.90
21950;DHT22;11139;51.284;7.226;2022-10-16T06:24:09;13.80;99.90
21950;DHT22;11139;51.284;7.226;2022-10-16T06:26:34;13.80;99.90
21950;DHT22;11139;51.284;7.226;2022-10-16T06:29:00;13.80;99.90
21950;DHT22;11139;51.284;7.226;2022-10-16T06:31:26;13.80;99.90
21950;DHT22;11139;51.284;7.226;2022-10-16T06:33:54;13.80;99.90
21950;DHT22;11139;51.284;7.226;2022-10-16T06:36:20;13.80;99.90
21950;DHT22;11139;51.284;7.226;2022-10-16T06:38:45;13.80;99.90
21950;DHT22;11139;51.284;7.226;2022-10-16T06:41:12;13.80;99.90
21950;DHT22;11139;51.284;7.226;2022-10-16T06:43:38;13.80;99.90
21950;DHT22;11139;51.284;7.226;2022-10-16T06:46:04;13.80;99.90
21950;DHT22;11139;51.284;7.226;2022-10-16T06:48:30;13.70;99.90
21950;DHT22;11139;51.284;7.226;2022-10-16T06:51:09;13.80;99.90
21950;DHT22;11139;51.284;7.226;2022-10-16T06:53:35;13.80;99.90
21950;DHT22;11139;51.284;7.226;2022-10-16T06:56:15;13.80;99.90
21950;DHT22;11139;51.284;7.226;2022-10-16T06:58:41;13.80;99.90
21950;DHT22;11139;51.284;7.226;2022-10-16T07:01:07;13.80;99.90
21950;DHT22;11139;51.284;7.226;2022-10-16T07:03:32;13.80;99.90
21950;DHT22;11139;51.284;7.226;2022-10-16T07:06:01;13.80;99.90
21950;DHT22;11139;51.284;7.226;2022-10-16T07:08:27;13.80;99.90
21950;DHT22;11139;51.284;7.226;2022-10-16T07:11:00;13.70;99.90
21950;DHT22;11139;51.284;7.226;2022-10-16T07:13:25;13.80;99.90
21950;DHT22;11139;51.284;7.226;2022-10-16T07:15:51;13.70;99.90
21950;DHT22;11139;51.284;7.226;2022-10-16T07:18:16;13.70;99.90
21950;DHT22;11139;51.284;7.226;2022-10-16T07:20:42;13.80;99.90
21950;DHT22;11139;51.284;7.226;2022-10-16T07:23:07;13.80;99.90
21950;DHT22;11139;51.284;7.226;2022-10-16T07:25:33;13.80;99.90
21950;DHT22;11139;51.284;7.226;2022-10-16T07:27:58;13.70;99.90
21950;DHT22;11139;51.284;7.226;2022-10-16T07:30:24;13.70;99.90
21950;DHT22;11139;51.284;7.226;2022-10-16T07:32:49;13.70;99.90
21950;DHT22;11139;51.284;7.226;2022-10-16T07:35:15;13.70;99.90
21950;DHT22;11139;51.284;7.226;2022-10-16T07:37:43;13.80;99.90
21950;DHT22;11139;51.284;7.226;2022-10-16T07:40:09;13.80;99.90
21950;DHT22;11139;51.284;7.226;2022-10-16T07:42:35;13.80;99.90
21950;DHT22;11139;51.284;7.226;2022-10-16T07:45:00;13.70;99.90
21950;DHT22;11139;51.284;7.226;2022-10-16T07:47:26;13.80;99.90
21950;DHT22;11139;51.284;7.226;2022-10-16T07:49:51;13.80;99.90
21950;DHT22;11139;51.284;7.226;2022-10-16T07:52:17;13.80;99.90
21950;DHT22;11139;51.284;7.226;2022-10-16T07:54:42;13.80;99.90
21950;DHT22;11139;51.284;7.226;2022-10-16T07:57:11;13.70;99.90
21950;DHT22;11139;51.284;7.226;2022-10-16T07:59:37;13.70;99.90
21950;DHT22;11139;51.284;7.226;2022-10-16T08:02:02;13.70;99.90
21950;DHT22;11139;51.284;7.226;2022-10-16T08:04:28;13.70;99.90
21950;DHT22;11139;51.284;7.226;2022-10-16T08:06:59;13.70;99.90
21950;DHT22;11139;51.284;7.226;2022-10-16T08:09:31;13.70;99.90
21950;DHT22;11139;51.284;7.226;2022-10-16T08:12:14;13.70;99.90
21950;DHT22;11139;51.284;7.226;2022-10-16T08:14:50;13.70;99.90
21950;DHT22;11139;51.284;7.226;2022-10-16T08:20:06;13.70;99.90
21950;DHT22;11139;51.284;7.226;2022-10-16T08:22:38;13.70;99.90
21950;DHT22;11139;51.284;7.226;2022-10-16T08:25:06;13.70;99.90
21950;DHT22;11139;51.284;7.226;2022-10-16T08:27:34;13.70;99.90
21950;DHT22;11139;51.284;7.226;2022-10-16T08:30:00;13.70;99.90
21950;DHT22;11139;51.284;7.226;2022-10-16T08:32:25;13.70;99.90
21950;DHT22;11139;51.284;7.226;2022-10-16T08:34:51;13.70;99.90
21950;DHT22;11139;51.284;7.226;2022-10-16T08:37:17;13.70;99.90
21950;DHT22;11139;51.284;7.226;2022-10-16T08:39:42;13.80;99.90
21950;DHT22;11139;51.284;7.226;2022-10-16T08:44:44;13.80;99.90
21950;DHT22;11139;51.284;7.226;2022-10-16T08:47:19;13.80;99.90
21950;DHT22;11139;51.284;7.226;2022-10-16T08:50:08;13.80;99.90
21950;DHT22;11139;51.284;7.226;2022-10-16T08:52:34;13.80;99.90
21950;DHT22;11139;51.284;7.226;2022-10-16T08:55:00;13.80;99.90
21950;DHT22;11139;51.284;7.226;2022-10-16T08:57:27;13.80;99.90
21950;DHT22;11139;51.284;7.226;2022-10-16T08:59:53;13.80;99.90
21950;DHT22;11139;51.284;7.226;2022-10-16T09:07:47;13.80;99.90
21950;DHT22;11139;51.284;7.226;2022-10-16T09:11:06;13.80;99.90
21950;DHT22;11139;51.284;7.226;2022-10-16T09:18:06;13.80;99.90
21950;DHT22;11139;51.284;7.226;2022-10-16T09:25:28;13.80;99.90
21950;DHT22;11139;51.284;7.226;2022-10-16T09:27:54;13.80;99.90
21950;DHT22;11139;51.284;7.226;2022-10-16T09:30:20;13.80;99.90
21950;DHT22;11139;51.284;7.226;2022-10-16T09:32:47;13.80;99.90
21950;DHT22;11139;51.284;7.226;2022-10-16T09:35:17;13.80;99.90
21950;DHT22;11139;51.284;7.226;2022-10-16T09:37:44;13.80;99.90
21950;DHT22;11139;51.284;7.226;2022-10-16T09:40:23;13.80;99.90
21950;DHT22;11139;51.284;7.226;2022-10-16T09:42:50;13.80;99.90
21950;DHT22;11139;51.284;7.226;2022-10-16T09:45:21;13.80;99.90
21950;DHT22;11139;51.284;7.226;2022-10-16T09:47:47;13.90;99.90
21950;DHT22;11139;51.284;7.226;2022-10-16T09:50:20;13.80;99.90
21950;DHT22;11139;51.284;7.226;2022-10-16T09:52:47;13.80;99.90
21950;DHT22;11139;51.284;7.226;2022-10-16T09:55:15;13.80;99.90
21950;DHT22;11139;51.284;7.226;2022-10-16T09:57:54;13.90;99.90
21950;DHT22;11139;51.284;7.226;2022-10-16T10:00:19;13.90;99.90
21950;DHT22;11139;51.284;7.226;2022-10-16T10:02:45;13.80;99.90
21950;DHT22;11139;51.284;7.226;2022-10-16T10:05:20;13.90;99.90
21950;DHT22;11139;51.284;7.226;2022-10-16T10:07:52;13.90;99.90
21950;DHT22;11139;51.284;7.226;2022-10-16T10:10:20;13.90;99.90
21950;DHT22;11139;51.284;7.226;2022-10-16T10:12:46;13.90;99.90
21950;DHT22;11139;51.284;7.226;2022-10-16T10:15:11;13.90;99.90
21950;DHT22;11139;51.284;7.226;2022-10-16T10:17:48;13.90;99.90
21950;DHT22;11139;51.284;7.226;2022-10-16T10:20:30;13.90;99.90
21950;DHT22;11139;51.284;7.226;2022-10-16T10:22:58;13.90;99.90
21950;DHT22;11139;51.284;7.226;2022-10-16T10:28:16;13.90;99.90
21950;DHT22;11139;51.284;7.226;2022-10-16T10:33:25;13.90;99.90
21950;DHT22;11139;51.284;7.226;2022-10-16T10:38:27;14.00;99.90
21950;DHT22;11139;51.284;7.226;2022-10-16T10:59:22;14.00;99.90
21950;DHT22;11139;51.284;7.226;2022-10-16T11:01:56;14.00;99.90
21950;DHT22;11139;51.284;7.226;2022-10-16T11:06:52;14.10;99.90
21950;DHT22;11139;51.284;7.226;2022-10-16T11:09:21;14.10;99.90
21950;DHT22;11139;51.284;7.226;2022-10-16T11:11:52;14.10;99.90
21950;DHT22;11139;51.284;7.226;2022-10-16T11:14:26;14.10;99.90
21950;DHT22;11139;51.284;7.226;2022-10-16T11:16:58;14.10;99.90
21950;DHT22;11139;51.284;7.226;2022-10-16T11:21:58;14.10;99.90
21950;DHT22;11139;51.284;7.226;2022-10-16T11:26:59;14.10;99.90
21950;DHT22;11139;51.284;7.226;2022-10-16T11:29:27;14.10;99.90
21950;DHT22;11139;51.284;7.226;2022-10-16T11:31:55;14.20;99.90
21950;DHT22;11139;51.284;7.226;2022-10-16T11:36:49;14.20;99.90
21950;DHT22;11139;51.284;7.226;2022-10-16T11:41:44;14.20;99.90
21950;DHT22;11139;51.284;7.226;2022-10-16T11:49:25;14.30;99.90
21950;DHT22;11139;51.284;7.226;2022-10-16T11:54:21;14.30;99.90
21950;DHT22;11139;51.284;7.226;2022-10-16T11:56:51;14.30;99.90
21950;DHT22;11139;51.284;7.226;2022-10-16T11:59:23;14.30;99.90
21950;DHT22;11139;51.284;7.226;2022-10-16T12:01:53;14.30;99.90
21950;DHT22;11139;51.284;7.226;2022-10-16T12:06:57;14.40;99.90
21950;DHT22;11139;51.284;7.226;2022-10-16T12:09:28;14.30;99.90
21950;DHT22;11139;51.284;7.226;2022-10-16T12:11:54;14.30;99.90
21950;DHT22;11139;51.284;7.226;2022-10-16T12:16:59;14.40;99.90
21950;DHT22;11139;51.284;7.226;2022-10-16T12:19:26;14.40;99.90
21950;DHT22;11139;51.284;7.226;2022-10-16T12:21:54;14.40;99.90
21950;DHT22;11139;51.284;7.226;2022-10-16T12:24:42;14.40;99.90
21950;DHT22;11139;51.284;7.226;2022-10-16T12:27:17;14.30;99.90
21950;DHT22;11139;51.284;7.226;2022-10-16T12:29:45;14.40;99.90
21950;DHT22;11139;51.284;7.226;2022-10-16T12:34:51;14.70;99.90
21950;DHT22;11139;51.284;7.226;2022-10-16T12:37:24;14.90;99.90
21950;DHT22;11139;51.284;7.226;2022-10-16T12:39:51;14.90;99.90
21950;DHT22;11139;51.284;7.226;2022-10-16T12:42:39;14.90;99.90
21950;DHT22;11139;51.284;7.226;2022-10-16T12:45:21;14.90;99.90
21950;DHT22;11139;51.284;7.226;2022-10-16T12:47:48;14.90;99.90
21950;DHT22;11139;51.284;7.226;2022-10-16T12:52:56;14.90;99.90
21950;DHT22;11139;51.284;7.226;2022-10-16T12:55:22;15.00;99.90
21950;DHT22;11139;51.284;7.226;2022-10-16T13:00:34;14.90;99.90
21950;DHT22;11139;51.284;7.226;2022-10-16T13:03:19;14.90;99.90
21950;DHT22;11139;51.284;7.226;2022-10-16T13:06:04;14.90;99.90
21950;DHT22;11139;51.284;7.226;2022-10-16T13:16:38;14.90;99.90
21950;DHT22;11139;51.284;7.226;2022-10-16T13:19:15;14.90;99.90
21950;DHT22;11139;51.284;7.226;2022-10-16T13:27:06;14.90;99.90
21950;DHT22;11139;51.284;7.226;2022-10-16T13:29:32;14.90;99.90
21950;DHT22;11139;51.284;7.226;2022-10-16T13:31:59;14.90;99.90
21950;DHT22;11139;51.284;7.226;2022-10-16T13:34:25;14.90;99.90
21950;DHT22;11139;51.284;7.226;2022-10-16T13:36:52;14.90;99.90
21950;DHT22;11139;51.284;7.226;2022-10-16T13:39:22;14.80;99.90
21950;DHT22;11139;51.284;7.226;2022-10-16T13:42:05;14.90;99.90
21950;DHT22;11139;51.284;7.226;2022-10-16T13:47:11;14.90;99.90
21950;DHT22;11139;51.284;7.226;2022-10-16T13:49:40;14.90;99.90
21950;DHT22;11139;51.284;7.226;2022-10-16T13:52:05;14.90;99.90
21950;DHT22;11139;51.284;7.226;2022-10-16T13:54:30;14.90;99.90
21950;DHT22;11139;51.284;7.226;2022-10-16T13:56:56;14.90;99.90
21950;DHT22;11139;51.284;7.226;2022-10-16T13:59:33;14.90;99.90
21950;DHT22;11139;51.284;7.226;2022-10-16T14:01:59;14.90;99.90
21950;DHT22;11139;51.284;7.226;2022-10-16T14:04:31;15.00;99.90
21950;DHT22;11139;51.284;7.226;2022-10-16T14:06:57;14.90;99.90
21950;DHT22;11139;51.284;7.226;2022-10-16T14:09:23;15.00;99.90
21950;DHT22;11139;51.284;7.226;2022-10-16T14:11:56;15.00;99.90
21950;DHT22;11139;51.284;7.226;2022-10-16T14:14:23;15.00;99.90
21950;DHT22;11139;51.284;7.226;2022-10-16T14:16:49;15.00;99.90
21950;DHT22;11139;51.284;7.226;2022-10-16T14:19:18;15.00;99.90
21950;DHT22;11139;51.284;7.226;2022-10-16T14:21:45;14.90;99.90
21950;DHT22;11139;51.284;7.226;2022-10-16T14:24:21;14.90;99.90
21950;DHT22;11139;51.284;7.226;2022-10-16T14:26:47;14.90;99.90
21950;DHT22;11139;51.284;7.226;2022-10-16T14:29:15;15.00;99.90
21950;DHT22;11139;51.284;7.226;2022-10-16T14:31:42;15.00;99.90
21950;DHT22;11139;51.284;7.226;2022-10-16T14:34:24;14.90;99.90
21950;DHT22;11139;51.284;7.226;2022-10-16T14:36:50;15.00;99.90
21950;DHT22;11139;51.284;7.226;2022-10-16T14:39:22;14.90;99.90
21950;DHT22;11139;51.284;7.226;2022-10-16T14:41:49;14.90;99.90
21950;DHT22;11139;51.284;7.226;2022-10-16T14:44:15;14.90;99.90
21950;DHT22;11139;51.284;7.226;2022-10-16T14:46:42;14.90;99.90
21950;DHT22;11139;51.284;7.226;2022-10-16T14:51:36;14.90;99.90
21950;DHT22;11139;51.284;7.226;2022-10-16T14:54:02;14.90;99.90
21950;DHT22;11139;51.284;7.226;2022-10-16T14:56:40;15.00;99.90
21950;DHT22;11139;51.284;7.226;2022-10-16T14:59:08;15.00;99.90
21950;DHT22;11139;51.284;7.226;2022-10-16T15:01:35;15.00;99.90
21950;DHT22;11139;51.284;7.226;2022-10-16T15:04:01;15.00;99.90
21950;DHT22;11139;51.284;7.226;2022-10-16T15:06:26;15.10;99.90
21950;DHT22;11139;51.284;7.226;2022-10-16T15:08:52;15.00;99.90
21950;DHT22;11139;51.284;7.226;2022-10-16T15:11:17;15.00;99.90
21950;DHT22;11139;51.284;7.226;2022-10-16T15:13:44;15.00;99.90
21950;DHT22;11139;51.284;7.226;2022-10-16T15:16:10;15.00;99.90
21950;DHT22;11139;51.284;7.226;2022-10-16T15:18:36;15.00;99.90
21950;DHT22;11139;51.284;7.226;2022-10-16T15:21:02;15.00;99.90
21950;DHT22;11139;51.284;7.226;2022-10-16T15:23:27;15.10;99.90
21950;DHT22;11139;51.284;7.226;2022-10-16T15:25:54;15.30;99.90
21950;DHT22;11139;51.284;7.226;2022-10-16T15:28:19;15.60;99.90
21950;DHT22;11139;51.284;7.226;2022-10-16T15:30:45;15.80;99.90
21950;DHT22;11139;51.284;7.226;2022-10-16T15:33:15;16.10;99.90
21950;DHT22;11139;51.284;7.226;2022-10-16T15:35:41;16.20;99.90
21950;DHT22;11139;51.284;7.226;2022-10-16T15:38:10;16.20;99.90
21950;DHT22;11139;51.284;7.226;2022-10-16T15:40:36;16.20;99.90
21950;DHT22;11139;51.284;7.226;2022-10-16T15:43:02;16.20;99.90
21950;DHT22;11139;51.284;7.226;2022-10-16T15:45:28;16.20;99.90
21950;DHT22;11139;51.284;7.226;2022-10-16T15:47:53;16.20;99.90
21950;DHT22;11139;51.284;7.226;2022-10-16T15:50:19;16.10;99.90
21950;DHT22;11139;51.284;7.226;2022-10-16T15:52:44;16.20;99.90
21950;DHT22;11139;51.284;7.226;2022-10-16T15:55:10;16.20;99.90
21950;DHT22;11139;51.284;7.226;2022-10-16T15:57:36;16.10;99.90
21950;DHT22;11139;51.284;7.226;2022-10-16T16:00:05;16.20;99.90
21950;DHT22;11139;51.284;7.226;2022-10-16T16:02:33;16.20;99.90
21950;DHT22;11139;51.284;7.226;2022-10-16T16:04:58;16.10;99.90
21950;DHT22;11139;51.284;7.226;2022-10-16T16:07:24;16.10;99.90
21950;DHT22;11139;51.284;7.226;2022-10-16T16:09:49;16.20;99.90
21950;DHT22;11139;51.284;7.226;2022-10-16T16:12:15;16.10;99.90
21950;DHT22;11139;51.284;7.226;2022-10-16T16:14:40;16.10;99.90
21950;DHT22;11139;51.284;7.226;2022-10-16T16:17:06;16.10;99.90
21950;DHT22;11139;51.284;7.226;2022-10-16T16:19:32;16.10;99.90
21950;DHT22;11139;51.284;7.226;2022-10-16T16:21:58;16.10;99.90
21950;DHT22;11139;51.284;7.226;2022-10-16T16:24:23;16.10;99.90
21950;DHT22;11139;51.284;7.226;2022-10-16T16:26:49;16.00;99.90
21950;DHT22;11139;51.284;7.226;2022-10-16T16:29:15;16.10;99.90
21950;DHT22;11139;51.284;7.226;2022-10-16T16:31:41;16.10;99.90
21950;DHT22;11139;51.284;7.226;2022-10-16T16:34:07;16.00;99.90
21950;DHT22;11139;51.284;7.226;2022-10-16T16:36:32;16.00;99.90
21950;DHT22;11139;51.284;7.226;2022-10-16T16:38:58;16.00;99.90
21950;DHT22;11139;51.284;7.226;2022-10-16T16:41:25;16.00;99.90
21950;DHT22;11139;51.284;7.226;2022-10-16T16:43:51;16.00;99.90
21950;DHT22;11139;51.284;7.226;2022-10-16T16:46:17;16.00;99.90
21950;DHT22;11139;51.284;7.226;2022-10-16T16:48:43;16.00;99.90
21950;DHT22;11139;51.284;7.226;2022-10-16T16:51:15;16.00;99.90
21950;DHT22;11139;51.284;7.226;2022-10-16T16:53:43;15.90;99.90
21950;DHT22;11139;51.284;7.226;2022-10-16T16:56:09;15.90;99.90
21950;DHT22;11139;51.284;7.226;2022-10-16T16:58:34;16.00;99.90
21950;DHT22;11139;51.284;7.226;2022-10-16T17:01:00;16.00;99.90
21950;DHT22;11139;51.284;7.226;2022-10-16T17:03:27;16.00;99.90
21950;DHT22;11139;51.284;7.226;2022-10-16T17:05:59;16.00;99.90
21950;DHT22;11139;51.284;7.226;2022-10-16T17:08:25;16.00;99.90
21950;DHT22;11139;51.284;7.226;2022-10-16T17:10:51;16.00;99.90
21950;DHT22;11139;51.284;7.226;2022-10-16T17:13:23;15.90;99.90
21950;DHT22;11139;51.284;7.226;2022-10-16T17:15:49;15.90;99.90
21950;DHT22;11139;51.284;7.226;2022-10-16T17:18:16;15.90;99.90
21950;DHT22;11139;51.284;7.226;2022-10-16T17:20:41;16.00;99.90
21950;DHT22;11139;51.284;7.226;2022-10-16T17:23:08;16.00;99.90
21950;DHT22;11139;51.284;7.226;2022-10-16T17:25:36;15.90;99.90
21950;DHT22;11139;51.284;7.226;2022-10-16T17:28:02;15.90;99.90
21950;DHT22;11139;51.284;7.226;2022-10-16T17:30:28;15.90;99.90